PORTS® Data Listing: 8518750 The Battery, NY

CO-OPS RAW PORTS DATA

************************      PRELIMINARY DATA      ************************** 

     THIS RAW DATA HAS NOT BEEN SUBJECT TO THE NATIONAL OCEAN SERVICE'S        
     QUALITY CONTROL OR QUALITY ASSURANCE PROCEDURES AND DOES NOT MEET         
     THE CRITERIA AND STANDARDS OF OFFICIAL NATIONAL OCEAN SERVICE             
     DATA.  IT IS RELEASED FOR LIMITED PUBLIC USE AS PRELIMINARY DATA TO       
     BE USED ONLY WITH APPROPRIATE CAUTION.                                    

************************      PRELIMINARY DATA      ************************** 


       CD   -   Calendar date
       T    -   Time
       TZ   -   Timezone
       PW   -   Predicted water level (feet above MLLW)
       OW   -   Observed water level (feet above MLLW)
       WS   -   Wind speed (knots)
       WD   -   Wind direction (degrees true)
       WG   -   Wind gust (knots)
       AT   -   Air temperature (degrees farenheit)
       WT   -   Water temperature (degrees farenheit)
       AP   -   Air pressure (millibars)
       SA   -   Salinty (PSU - Practical Salinity Units)
       SG   -   Specific gravity
       RH   -   Relative humidity
       AG   -   Air gap (feet)
       VI   -   Visibility (nautical miles)

       ** NOTE **
       A variable that has its data fields filled with "9"s, indicates that
       data was not collected for that sample period.
       **********


STATION NAME: The Battery (8518750)
****************************************************************************************************
    CD       T    TZ    PW     OW    WS   WD   WG    AT    WT    AP    SA    SG     RH    AG   VI
****************************************************************************************************
2019/11/21 13:48 EST    4.31   5.15 -999 -999 -999  50.2  50.7 1020.1 -9.9 -9.999 -99.9 -99.99 -9.99
2019/11/21 13:54 EST    4.37   5.20 -999 -999 -999  50.0  50.7 1020.1 -9.9 -9.999 -99.9 -99.99 -9.99
2019/11/21 14:00 EST    4.43   5.28 -999 -999 -999  50.1  50.7 1020.1 -9.9 -9.999 -99.9 -99.99 -9.99
2019/11/21 14:06 EST    4.48   5.35 -999 -999 -999  50.7  50.4 1020.0 -9.9 -9.999 -99.9 -99.99 -9.99
2019/11/21 14:12 EST    4.53   5.40 -999 -999 -999  50.5  50.4 1020.1 -9.9 -9.999 -99.9 -99.99 -9.99
2019/11/21 14:18 EST    4.57   5.47 -999 -999 -999  50.5  50.4 1020.0 -9.9 -9.999 -99.9 -99.99 -9.99
2019/11/21 14:24 EST    4.61   5.51 -999 -999 -999  50.2  50.5 1019.8 -9.9 -9.999 -99.9 -99.99 -9.99
2019/11/21 14:30 EST    4.65   5.53 -999 -999 -999  49.6  50.5 1019.8 -9.9 -9.999 -99.9 -99.99 -9.99
2019/11/21 14:36 EST    4.68   5.55 -999 -999 -999  49.8  50.4 1019.8 -9.9 -9.999 -99.9 -99.99 -9.99
2019/11/21 14:42 EST    4.70   5.59 -999 -999 -999  50.4  50.4 1019.7 -9.9 -9.999 -99.9 -99.99 -9.99
2019/11/21 14:48 EST    4.73   5.62 -999 -999 -999  50.7  50.3 1019.7 -9.9 -9.999 -99.9 -99.99 -9.99
2019/11/21 14:54 EST    4.74   5.65 -999 -999 -999  50.7  50.3 1019.8 -9.9 -9.999 -99.9 -99.99 -9.99
2019/11/21 15:00 EST    4.76   5.68 -999 -999 -999  50.3  50.3 1019.8 -9.9 -9.999 -99.9 -99.99 -9.99
2019/11/21 15:06 EST    4.77   5.71 -999 -999 -999  50.4  50.4 1019.8 -9.9 -9.999 -99.9 -99.99 -9.99
2019/11/21 15:12 EST    4.77   5.72 -999 -999 -999  50.9  50.5 1019.7 -9.9 -9.999 -99.9 -99.99 -9.99
2019/11/21 15:18 EST    4.77   5.75 -999 -999 -999  51.3  50.6 1019.7 -9.9 -9.999 -99.9 -99.99 -9.99
2019/11/21 15:24 EST    4.77   5.74 -999 -999 -999  51.4  50.5 1019.7 -9.9 -9.999 -99.9 -99.99 -9.99
2019/11/21 15:30 EST    4.76   5.73 -999 -999 -999  51.8  50.5 1019.7 -9.9 -9.999 -99.9 -99.99 -9.99
2019/11/21 15:36 EST    4.75   5.72 -999 -999 -999  51.9  50.4 1019.6 -9.9 -9.999 -99.9 -99.99 -9.99
2019/11/21 15:42 EST    4.73   5.70 -999 -999 -999  52.0  50.5 1019.5 -9.9 -9.999 -99.9 -99.99 -9.99
2019/11/21 15:48 EST    4.70   5.68 -999 -999 -999  51.8  50.5 1019.4 -9.9 -9.999 -99.9 -99.99 -9.99
2019/11/21 15:54 EST    4.68   5.64 -999 -999 -999  51.6  50.5 1019.4 -9.9 -9.999 -99.9 -99.99 -9.99
2019/11/21 16:00 EST    4.64   5.61 -999 -999 -999  51.6  50.5 1019.3 -9.9 -9.999 -99.9 -99.99 -9.99
2019/11/21 16:06 EST    4.61   5.59 -999 -999 -999  51.5  50.6 1019.3 -9.9 -9.999 -99.9 -99.99 -9.99
2019/11/21 16:12 EST    4.56   5.55 -999 -999 -999  51.4  50.7 1019.2 -9.9 -9.999 -99.9 -99.99 -9.99
2019/11/21 16:18 EST    4.52   5.54 -999 -999 -999  51.3  50.6 1019.3 -9.9 -9.999 -99.9 -99.99 -9.99
2019/11/21 16:24 EST    4.47   5.47 -999 -999 -999  50.9  50.5 1019.3 -9.9 -9.999 -99.9 -99.99 -9.99
2019/11/21 16:30 EST    4.41   5.45 -999 -999 -999  50.9  50.5 1019.3 -9.9 -9.999 -99.9 -99.99 -9.99
2019/11/21 16:36 EST    4.35   5.38 -999 -999 -999  50.8  50.4 1019.2 -9.9 -9.999 -99.9 -99.99 -9.99
2019/11/21 16:42 EST    4.28   5.34 -999 -999 -999  50.6  50.6 1019.1 -9.9 -9.999 -99.9 -99.99 -9.99
2019/11/21 16:48 EST    4.21   5.29 -999 -999 -999  50.7  50.5 1019.3 -9.9 -9.999 -99.9 -99.99 -9.99
2019/11/21 16:54 EST    4.13   5.23 -999 -999 -999  50.8  50.5 1019.4 -9.9 -9.999 -99.9 -99.99 -9.99
2019/11/21 17:00 EST    4.05   5.18 -999 -999 -999  50.8  50.4 1019.3 -9.9 -9.999 -99.9 -99.99 -9.99
2019/11/21 17:06 EST    3.96   5.13 -999 -999 -999  50.8  50.4 1019.2 -9.9 -9.999 -99.9 -99.99 -9.99
2019/11/21 17:12 EST    3.87   5.06 -999 -999 -999  50.5  50.4 1019.2 -9.9 -9.999 -99.9 -99.99 -9.99
2019/11/21 17:18 EST    3.78   4.98 -999 -999 -999  50.4  50.4 1019.3 -9.9 -9.999 -99.9 -99.99 -9.99
2019/11/21 17:24 EST    3.68   4.92 -999 -999 -999  50.4  50.5 1019.3 -9.9 -9.999 -99.9 -99.99 -9.99
2019/11/21 17:30 EST    3.58   4.81 -999 -999 -999  50.4  50.5 1019.2 -9.9 -9.999 -99.9 -99.99 -9.99
2019/11/21 17:36 EST    3.48   4.71 -999 -999 -999  50.4  50.5 1019.2 -9.9 -9.999 -99.9 -99.99 -9.99
2019/11/21 17:42 EST    3.38   4.60 -999 -999 -999  50.4  50.7 1019.2 -9.9 -9.999 -99.9 -99.99 -9.99
2019/11/21 17:48 EST    3.27   4.52 -999 -999 -999  50.2  50.7 1019.1 -9.9 -9.999 -99.9 -99.99 -9.99
2019/11/21 17:54 EST    3.16   4.42 -999 -999 -999  50.1  50.6 1019.1 -9.9 -9.999 -99.9 -99.99 -9.99
2019/11/21 18:00 EST    3.05   4.31 -999 -999 -999  50.2  50.5 1019.1 -9.9 -9.999 -99.9 -99.99 -9.99
2019/11/21 18:06 EST    2.94   4.18 -999 -999 -999  50.2  50.4 1019.1 -9.9 -9.999 -99.9 -99.99 -9.99
2019/11/21 18:12 EST    2.83   4.04 -999 -999 -999  50.4  50.4 1019.1 -9.9 -9.999 -99.9 -99.99 -9.99
2019/11/21 18:18 EST    2.72   3.89 -999 -999 -999  50.3  50.3 1019.0 -9.9 -9.999 -99.9 -99.99 -9.99
2019/11/21 18:24 EST    2.61   3.78 -999 -999 -999  50.2  50.2 1019.0 -9.9 -9.999 -99.9 -99.99 -9.99
2019/11/21 18:30 EST    2.50   3.66 -999 -999 -999  50.2  50.1 1018.8 -9.9 -9.999 -99.9 -99.99 -9.99
2019/11/21 18:36 EST    2.39   3.56 -999 -999 -999  50.1  50.3 1018.8 -9.9 -9.999 -99.9 -99.99 -9.99
2019/11/21 18:42 EST    2.29   3.40 -999 -999 -999  50.0  50.5 1018.9 -9.9 -9.999 -99.9 -99.99 -9.99
2019/11/21 18:48 EST    2.18   3.30 -999 -999 -999  50.0  50.5 1018.9 -9.9 -9.999 -99.9 -99.99 -9.99
2019/11/21 18:54 EST    2.08   3.19 -999 -999 -999  49.8  50.5 1018.9 -9.9 -9.999 -99.9 -99.99 -9.99
2019/11/21 19:00 EST    1.98   3.06 -999 -999 -999  49.9  50.5 1018.9 -9.9 -9.999 -99.9 -99.99 -9.99
2019/11/21 19:06 EST    1.88   2.97 -999 -999 -999  49.8  50.5 1018.9 -9.9 -9.999 -99.9 -99.99 -9.99
2019/11/21 19:12 EST    1.78   2.85 -999 -999 -999  49.9  50.4 1018.9 -9.9 -9.999 -99.9 -99.99 -9.99
2019/11/21 19:18 EST    1.69   2.75 -999 -999 -999  49.8  50.4 1018.8 -9.9 -9.999 -99.9 -99.99 -9.99
2019/11/21 19:24 EST    1.60   2.66 -999 -999 -999  49.7  50.3 1018.6 -9.9 -9.999 -99.9 -99.99 -9.99
2019/11/21 19:30 EST    1.50   2.57 -999 -999 -999  49.8  50.4 1018.6 -9.9 -9.999 -99.9 -99.99 -9.99
2019/11/21 19:36 EST    1.41   2.46 -999 -999 -999  49.6  50.4 1018.6 -9.9 -9.999 -99.9 -99.99 -9.99
2019/11/21 19:42 EST    1.33   2.34 -999 -999 -999  49.6  50.4 1018.7 -9.9 -9.999 -99.9 -99.99 -9.99
2019/11/21 19:48 EST    1.24   2.26 -999 -999 -999  49.6  50.3 1018.6 -9.9 -9.999 -99.9 -99.99 -9.99
2019/11/21 19:54 EST    1.15   2.14 -999 -999 -999  49.6  50.3 1018.4 -9.9 -9.999 -99.9 -99.99 -9.99
2019/11/21 20:00 EST    1.07   2.07 -999 -999 -999  49.5  50.4 1018.4 -9.9 -9.999 -99.9 -99.99 -9.99
2019/11/21 20:06 EST    0.98   1.99 -999 -999 -999  49.5  50.4 1018.5 -9.9 -9.999 -99.9 -99.99 -9.99
2019/11/21 20:12 EST    0.90   1.90 -999 -999 -999  49.3  50.4 1018.3 -9.9 -9.999 -99.9 -99.99 -9.99
2019/11/21 20:18 EST    0.82   1.81 -999 -999 -999  49.3  50.4 1018.2 -9.9 -9.999 -99.9 -99.99 -9.99
2019/11/21 20:24 EST    0.73   1.73 -999 -999 -999  49.2  50.4 1018.2 -9.9 -9.999 -99.9 -99.99 -9.99
2019/11/21 20:30 EST    0.65   1.67 -999 -999 -999  49.2  50.4 1018.1 -9.9 -9.999 -99.9 -99.99 -9.99
2019/11/21 20:36 EST    0.57   1.63 -999 -999 -999  49.2  50.4 1018.1 -9.9 -9.999 -99.9 -99.99 -9.99
2019/11/21 20:42 EST    0.50   1.55 -999 -999 -999  49.1  50.3 1018.0 -9.9 -9.999 -99.9 -99.99 -9.99
2019/11/21 20:48 EST    0.42   1.47 -999 -999 -999  49.1  50.3 1017.9 -9.9 -9.999 -99.9 -99.99 -9.99
2019/11/21 20:54 EST    0.34   1.39 -999 -999 -999  49.0  50.3 1017.9 -9.9 -9.999 -99.9 -99.99 -9.99
2019/11/21 21:00 EST    0.27   1.32 -999 -999 -999  49.1  50.4 1017.8 -9.9 -9.999 -99.9 -99.99 -9.99
2019/11/21 21:06 EST    0.20   1.26 -999 -999 -999  49.1  50.4 1017.7 -9.9 -9.999 -99.9 -99.99 -9.99
2019/11/21 21:12 EST    0.14   1.19 -999 -999 -999  49.1  50.2 1017.8 -9.9 -9.999 -99.9 -99.99 -9.99
2019/11/21 21:18 EST    0.08   1.13 -999 -999 -999  48.9  50.2 1017.6 -9.9 -9.999 -99.9 -99.99 -9.99
2019/11/21 21:24 EST    0.02   1.06 -999 -999 -999  48.9  50.2 1017.4 -9.9 -9.999 -99.9 -99.99 -9.99
2019/11/21 21:30 EST   -0.03   1.02 -999 -999 -999  48.7  50.2 1017.1 -9.9 -9.999 -99.9 -99.99 -9.99
2019/11/21 21:36 EST   -0.08   0.98 -999 -999 -999  48.7  50.4 1017.0 -9.9 -9.999 -99.9 -99.99 -9.99
2019/11/21 21:42 EST   -0.12   0.99 -999 -999 -999  48.9  50.4 1017.1 -9.9 -9.999 -99.9 -99.99 -9.99
2019/11/21 21:48 EST   -0.15   0.99 -999 -999 -999  48.9  50.3 1017.1 -9.9 -9.999 -99.9 -99.99 -9.99
2019/11/21 21:54 EST   -0.18   0.98 -999 -999 -999  48.7  50.3 1017.1 -9.9 -9.999 -99.9 -99.99 -9.99
2019/11/21 22:00 EST   -0.19   0.98 -999 -999 -999  48.6  50.4 1017.1 -9.9 -9.999 -99.9 -99.99 -9.99
2019/11/21 22:06 EST   -0.20   0.97 -999 -999 -999  48.7  50.4 1017.1 -9.9 -9.999 -99.9 -99.99 -9.99
2019/11/21 22:12 EST   -0.20   0.97 -999 -999 -999  48.9  50.4 1016.9 -9.9 -9.999 -99.9 -99.99 -9.99
2019/11/21 22:18 EST   -0.19   0.98 -999 -999 -999  48.9  50.4 1016.7 -9.9 -9.999 -99.9 -99.99 -9.99
2019/11/21 22:24 EST   -0.17   1.02 -999 -999 -999  48.7  50.2 1016.4 -9.9 -9.999 -99.9 -99.99 -9.99
2019/11/21 22:30 EST   -0.14   1.08 -999 -999 -999  48.6  50.0 1016.3 -9.9 -9.999 -99.9 -99.99 -9.99
2019/11/21 22:36 EST   -0.10   1.16 -999 -999 -999  48.6  50.2 1016.2 -9.9 -9.999 -99.9 -99.99 -9.99
2019/11/21 22:42 EST   -0.05   1.22 -999 -999 -999  48.5  50.2 1016.0 -9.9 -9.999 -99.9 -99.99 -9.99
2019/11/21 22:48 EST    0.01   1.30 -999 -999 -999  48.5  50.2 1016.1 -9.9 -9.999 -99.9 -99.99 -9.99
2019/11/21 22:54 EST    0.08   1.40 -999 -999 -999  48.5  50.2 1016.2 -9.9 -9.999 -99.9 -99.99 -9.99
2019/11/21 23:00 EST    0.15   1.47 -999 -999 -999  48.4  50.2 1016.0 -9.9 -9.999 -99.9 -99.99 -9.99
2019/11/21 23:06 EST    0.24   1.57 -999 -999 -999  48.2  50.4 1015.9 -9.9 -9.999 -99.9 -99.99 -9.99
2019/11/21 23:12 EST    0.33   1.67 -999 -999 -999  48.2  50.2 1015.7 -9.9 -9.999 -99.9 -99.99 -9.99
2019/11/21 23:18 EST    0.43   1.80 -999 -999 -999  48.0  50.2 1015.6 -9.9 -9.999 -99.9 -99.99 -9.99
2019/11/21 23:24 EST    0.54   1.93 -999 -999 -999  48.0  50.2 1015.4 -9.9 -9.999 -99.9 -99.99 -9.99
2019/11/21 23:30 EST    0.65   2.05 -999 -999 -999  48.2  50.2 1015.5 -9.9 -9.999 -99.9 -99.99 -9.99
2019/11/21 23:36 EST    0.77   2.19 -999 -999 -999  48.3  50.2 1015.7 -9.9 -9.999 -99.9 -99.99 -9.99
2019/11/21 23:42 EST    0.89   2.31 -999 -999 -999  48.3  50.3 1015.8 -9.9 -9.999 -99.9 -99.99 -9.99
2019/11/21 23:48 EST    1.02   2.43 -999 -999 -999  48.2  50.5 1015.9 -9.9 -9.999 -99.9 -99.99 -9.99
2019/11/21 23:54 EST    1.15   2.55 -999 -999 -999  48.2  50.4 1016.0 -9.9 -9.999 -99.9 -99.99 -9.99
2019/11/22 00:00 EST    1.29   2.70 -999 -999 -999  48.0  50.6 1016.0 -9.9 -9.999 -99.9 -99.99 -9.99
2019/11/22 00:06 EST    1.42   2.83 -999 -999 -999  48.0  50.6 1015.8 -9.9 -9.999 -99.9 -99.99 -9.99
2019/11/22 00:12 EST    1.56   2.98 -999 -999 -999  48.0  50.5 1015.8 -9.9 -9.999 -99.9 -99.99 -9.99
2019/11/22 00:18 EST    1.70   3.13 -999 -999 -999  48.1  50.5 1015.7 -9.9 -9.999 -99.9 -99.99 -9.99
2019/11/22 00:24 EST    1.84   3.28 -999 -999 -999  48.2  50.5 1015.7 -9.9 -9.999 -99.9 -99.99 -9.99
2019/11/22 00:30 EST    1.98   3.43 -999 -999 -999  48.1  50.3 1015.4 -9.9 -9.999 -99.9 -99.99 -9.99
2019/11/22 00:36 EST    2.11   3.58 -999 -999 -999  48.0  50.1 1015.1 -9.9 -9.999 -99.9 -99.99 -9.99
2019/11/22 00:42 EST    2.25   3.73 -999 -999 -999  48.0  50.0 1014.8 -9.9 -9.999 -99.9 -99.99 -9.99
2019/11/22 00:48 EST    2.39   3.88 -999 -999 -999  47.9  49.9 1014.8 -9.9 -9.999 -99.9 -99.99 -9.99
2019/11/22 00:54 EST    2.52   4.01 -999 -999 -999  48.0  50.0 1014.8 -9.9 -9.999 -99.9 -99.99 -9.99
2019/11/22 01:00 EST    2.65   4.11 -999 -999 -999  48.0  49.6 1014.8 -9.9 -9.999 -99.9 -99.99 -9.99
2019/11/22 01:06 EST    2.78   4.24 -999 -999 -999  47.9  49.7 1014.7 -9.9 -9.999 -99.9 -99.99 -9.99
2019/11/22 01:12 EST    2.90   4.37 -999 -999 -999  48.0  50.1 1014.7 -9.9 -9.999 -99.9 -99.99 -9.99
2019/11/22 01:18 EST    3.03   4.48 -999 -999 -999  48.0  49.9 1014.5 -9.9 -9.999 -99.9 -99.99 -9.99
2019/11/22 01:24 EST    3.15   4.60 -999 -999 -999  48.0  50.2 1014.5 -9.9 -9.999 -99.9 -99.99 -9.99
2019/11/22 01:30 EST    3.26   4.72 -999 -999 -999  48.0  50.9 1014.7 -9.9 -9.999 -99.9 -99.99 -9.99
2019/11/22 01:36 EST    3.38   4.82 -999 -999 -999  47.8  50.5 1014.4 -9.9 -9.999 -99.9 -99.99 -9.99
2019/11/22 01:42 EST    3.48   4.89 -999 -999 -999  48.0  50.7 1014.6 -9.9 -9.999 -99.9 -99.99 -9.99
2019/11/22 01:48 EST    3.59   4.98 -999 -999 -999  48.0  50.9 1014.6 -9.9 -9.999 -99.9 -99.99 -9.99
2019/11/22 01:54 EST    3.69   5.04 -999 -999 -999  47.9  50.9 1014.5 -9.9 -9.999 -99.9 -99.99 -9.99
2019/11/22 02:00 EST    3.79   5.14 -999 -999 -999  47.8  50.9 1014.2 -9.9 -9.999 -99.9 -99.99 -9.99
2019/11/22 02:06 EST    3.89   5.22 -999 -999 -999  47.8  51.1 1013.9 -9.9 -9.999 -99.9 -99.99 -9.99
2019/11/22 02:12 EST    3.98   5.31 -999 -999 -999  47.7  50.9 1013.7 -9.9 -9.999 -99.9 -99.99 -9.99
2019/11/22 02:18 EST    4.06   5.39 -999 -999 -999  47.7  50.9 1013.6 -9.9 -9.999 -99.9 -99.99 -9.99
2019/11/22 02:24 EST    4.15   5.46 -999 -999 -999  47.7  50.5 1013.6 -9.9 -9.999 -99.9 -99.99 -9.99
2019/11/22 02:30 EST    4.22   5.53 -999 -999 -999  47.7  50.5 1013.3 -9.9 -9.999 -99.9 -99.99 -9.99
2019/11/22 02:36 EST    4.30   5.58 -999 -999 -999  47.7  50.7 1013.4 -9.9 -9.999 -99.9 -99.99 -9.99
2019/11/22 02:42 EST    4.37   5.62 -999 -999 -999  47.6  50.7 1013.4 -9.9 -9.999 -99.9 -99.99 -9.99
2019/11/22 02:48 EST    4.44   5.66 -999 -999 -999  47.5  50.7 1013.3 -9.9 -9.999 -99.9 -99.99 -9.99
2019/11/22 02:54 EST    4.50   5.71 -999 -999 -999  47.6  50.7 1013.2 -9.9 -9.999 -99.9 -99.99 -9.99
2019/11/22 03:00 EST    4.55   5.79 -999 -999 -999  47.6  50.7 1013.1 -9.9 -9.999 -99.9 -99.99 -9.99
2019/11/22 03:06 EST    4.61   5.84 -999 -999 -999  47.5  50.8 1013.0 -9.9 -9.999 -99.9 -99.99 -9.99
2019/11/22 03:12 EST    4.66   5.89 -999 -999 -999  47.5  50.9 1012.9 -9.9 -9.999 -99.9 -99.99 -9.99
2019/11/22 03:18 EST    4.70   5.94 -999 -999 -999  47.5  50.9 1012.8 -9.9 -9.999 -99.9 -99.99 -9.99
2019/11/22 03:24 EST    4.74   5.98 -999 -999 -999  47.3  50.7 1012.6 -9.9 -9.999 -99.9 -99.99 -9.99
2019/11/22 03:30 EST    4.78   6.02 -999 -999 -999  47.3  50.7 1012.5 -9.9 -9.999 -99.9 -99.99 -9.99
2019/11/22 03:36 EST    4.81   6.07 -999 -999 -999  47.3  50.5 1012.5 -9.9 -9.999 -99.9 -99.99 -9.99
2019/11/22 03:42 EST    4.83   6.10 -999 -999 -999  47.5  50.5 1012.2 -9.9 -9.999 -99.9 -99.99 -9.99
2019/11/22 03:48 EST    4.85   6.16 -999 -999 -999  47.3  50.5 1012.5 -9.9 -9.999 -99.9 -99.99 -9.99
2019/11/22 03:54 EST    4.87   6.17 -999 -999 -999  47.3  50.4 1012.4 -9.9 -9.999 -99.9 -99.99 -9.99
2019/11/22 04:00 EST    4.88   6.17 -999 -999 -999  47.3  50.4 1012.5 -9.9 -9.999 -99.9 -99.99 -9.99
2019/11/22 04:06 EST    4.88   6.15 -999 -999 -999  47.4  50.4 1012.4 -9.9 -9.999 -99.9 -99.99 -9.99
2019/11/22 04:12 EST    4.88   6.10 -999 -999 -999  47.3  50.4 1012.3 -9.9 -9.999 -99.9 -99.99 -9.99
2019/11/22 04:18 EST    4.87   6.08 -999 -999 -999  47.4  50.4 1012.1 -9.9 -9.999 -99.9 -99.99 -9.99
2019/11/22 04:24 EST    4.86   6.06 -999 -999 -999  47.5  50.4 1011.9 -9.9 -9.999 -99.9 -99.99 -9.99
2019/11/22 04:30 EST    4.84   6.04 -999 -999 -999  47.1  50.4 1011.9 -9.9 -9.999 -99.9 -99.99 -9.99
2019/11/22 04:36 EST    4.82   6.00 -999 -999 -999  47.3  50.5 1011.9 -9.9 -9.999 -99.9 -99.99 -9.99
2019/11/22 04:42 EST    4.79   5.95 -999 -999 -999  47.5  50.5 1011.8 -9.9 -9.999 -99.9 -99.99 -9.99
2019/11/22 04:48 EST    4.75   5.85 -999 -999 -999  47.1  50.6 1011.6 -9.9 -9.999 -99.9 -99.99 -9.99
2019/11/22 04:54 EST    4.71   5.77 -999 -999 -999  47.2  50.6 1011.6 -9.9 -9.999 -99.9 -99.99 -9.99
2019/11/22 05:00 EST    4.66   5.71 -999 -999 -999  47.1  50.6 1011.6 -9.9 -9.999 -99.9 -99.99 -9.99
2019/11/22 05:06 EST    4.61   5.63 -999 -999 -999  47.2  50.6 1011.8 -9.9 -9.999 -99.9 -99.99 -9.99
2019/11/22 05:12 EST    4.55   5.56 -999 -999 -999  47.1  50.5 1011.8 -9.9 -9.999 -99.9 -99.99 -9.99
2019/11/22 05:18 EST    4.49   5.51 -999 -999 -999  47.2  50.4 1011.7 -9.9 -9.999 -99.9 -99.99 -9.99
2019/11/22 05:24 EST    4.42   5.43 -999 -999 -999  47.2  50.3 1011.6 -9.9 -9.999 -99.9 -99.99 -9.99
2019/11/22 05:30 EST    4.34   5.35 -999 -999 -999  47.2  50.2 1011.6 -9.9 -9.999 -99.9 -99.99 -9.99
2019/11/22 05:36 EST    4.26   5.26 -999 -999 -999  47.5  50.3 1011.2 -9.9 -9.999 -99.9 -99.99 -9.99
2019/11/22 05:42 EST    4.17   5.17 -999 -999 -999  47.4  50.4 1011.1 -9.9 -9.999 -99.9 -99.99 -9.99
2019/11/22 05:48 EST    4.08   5.07 -999 -999 -999  47.7  50.5 1011.0 -9.9 -9.999 -99.9 -99.99 -9.99
2019/11/22 05:54 EST    3.99   4.98 -999 -999 -999  47.8  50.5 1010.9 -9.9 -9.999 -99.9 -99.99 -9.99
2019/11/22 06:00 EST    3.89   4.88 -999 -999 -999  48.0  50.5 1010.9 -9.9 -9.999 -99.9 -99.99 -9.99
2019/11/22 06:06 EST    3.79   4.79 -999 -999 -999  47.8  50.4 1010.9 -9.9 -9.999 -99.9 -99.99 -9.99
2019/11/22 06:12 EST    3.68   4.71 -999 -999 -999  48.2  50.5 1010.7 -9.9 -9.999 -99.9 -99.99 -9.99
2019/11/22 06:18 EST    3.58   4.60 -999 -999 -999  48.3  50.5 1010.8 -9.9 -9.999 -99.9 -99.99 -9.99
2019/11/22 06:24 EST    3.47   4.47 -999 -999 -999  48.1  50.5 1010.7 -9.9 -9.999 -99.9 -99.99 -9.99
2019/11/22 06:30 EST    3.36   4.36 -999 -999 -999  48.1  50.3 1010.7 -9.9 -9.999 -99.9 -99.99 -9.99
2019/11/22 06:36 EST    3.25   4.27 -999 -999 -999  48.2  50.2 1010.7 -9.9 -9.999 -99.9 -99.99 -9.99
2019/11/22 06:42 EST    3.13   4.16 -999 -999 -999  48.0  50.2 1010.8 -9.9 -9.999 -99.9 -99.99 -9.99
2019/11/22 06:48 EST    3.02   4.03 -999 -999 -999  48.0  50.1 1010.5 -9.9 -9.999 -99.9 -99.99 -9.99
2019/11/22 06:54 EST    2.91   3.89 -999 -999 -999  48.3  50.1 1010.5 -9.9 -9.999 -99.9 -99.99 -9.99
2019/11/22 07:00 EST    2.80   3.76 -999 -999 -999  48.3  50.0 1010.5 -9.9 -9.999 -99.9 -99.99 -9.99
2019/11/22 07:06 EST    2.69   3.65 -999 -999 -999  48.5  50.0 1010.3 -9.9 -9.999 -99.9 -99.99 -9.99
2019/11/22 07:12 EST    2.58   3.53 -999 -999 -999  48.6  50.2 1010.2 -9.9 -9.999 -99.9 -99.99 -9.99
2019/11/22 07:18 EST    2.47   3.37 -999 -999 -999  48.6  50.2 1010.4 -9.9 -9.999 -99.9 -99.99 -9.99
2019/11/22 07:24 EST    2.36   3.26 -999 -999 -999  48.6  50.4 1010.4 -9.9 -9.999 -99.9 -99.99 -9.99
2019/11/22 07:30 EST    2.26   3.19 -999 -999 -999  48.6  50.7 1010.3 -9.9 -9.999 -99.9 -99.99 -9.99
2019/11/22 07:36 EST    2.16   3.08 -999 -999 -999  48.4  50.4 1010.0 -9.9 -9.999 -99.9 -99.99 -9.99
2019/11/22 07:42 EST    2.05 -99.99 -999 -999 -999 -99.9 -99.9 -999.9 -9.9 -9.999 -99.9 -99.99 -9.99
2019/11/22 07:48 EST    1.95 -99.99 -999 -999 -999 -99.9 -99.9 -999.9 -9.9 -9.999 -99.9 -99.99 -9.99
2019/11/22 07:54 EST    1.86 -99.99 -999 -999 -999 -99.9 -99.9 -999.9 -9.9 -9.999 -99.9 -99.99 -9.99
2019/11/22 08:00 EST    1.76 -99.99 -999 -999 -999 -99.9 -99.9 -999.9 -9.9 -9.999 -99.9 -99.99 -9.99
2019/11/22 08:06 EST    1.66 -99.99 -999 -999 -999 -99.9 -99.9 -999.9 -9.9 -9.999 -99.9 -99.99 -9.99
2019/11/22 08:12 EST    1.57 -99.99 -999 -999 -999 -99.9 -99.9 -999.9 -9.9 -9.999 -99.9 -99.99 -9.99
2019/11/22 08:18 EST    1.48 -99.99 -999 -999 -999 -99.9 -99.9 -999.9 -9.9 -9.999 -99.9 -99.99 -9.99
2019/11/22 08:24 EST    1.38 -99.99 -999 -999 -999 -99.9 -99.9 -999.9 -9.9 -9.999 -99.9 -99.99 -9.99
2019/11/22 08:30 EST    1.29 -99.99 -999 -999 -999 -99.9 -99.9 -999.9 -9.9 -9.999 -99.9 -99.99 -9.99
2019/11/22 08:36 EST    1.20 -99.99 -999 -999 -999 -99.9 -99.9 -999.9 -9.9 -9.999 -99.9 -99.99 -9.99
2019/11/22 08:42 EST    1.12 -99.99 -999 -999 -999 -99.9 -99.9 -999.9 -9.9 -9.999 -99.9 -99.99 -9.99
2019/11/22 08:48 EST    1.03 -99.99 -999 -999 -999 -99.9 -99.9 -999.9 -9.9 -9.999 -99.9 -99.99 -9.99
2019/11/22 08:54 EST    0.94 -99.99 -999 -999 -999 -99.9 -99.9 -999.9 -9.9 -9.999 -99.9 -99.99 -9.99
2019/11/22 09:00 EST    0.86 -99.99 -999 -999 -999 -99.9 -99.9 -999.9 -9.9 -9.999 -99.9 -99.99 -9.99
2019/11/22 09:06 EST    0.78 -99.99 -999 -999 -999 -99.9 -99.9 -999.9 -9.9 -9.999 -99.9 -99.99 -9.99
2019/11/22 09:12 EST    0.70 -99.99 -999 -999 -999 -99.9 -99.9 -999.9 -9.9 -9.999 -99.9 -99.99 -9.99
2019/11/22 09:18 EST    0.62 -99.99 -999 -999 -999 -99.9 -99.9 -999.9 -9.9 -9.999 -99.9 -99.99 -9.99
2019/11/22 09:24 EST    0.54 -99.99 -999 -999 -999 -99.9 -99.9 -999.9 -9.9 -9.999 -99.9 -99.99 -9.99
2019/11/22 09:30 EST    0.47 -99.99 -999 -999 -999 -99.9 -99.9 -999.9 -9.9 -9.999 -99.9 -99.99 -9.99
2019/11/22 09:36 EST    0.40 -99.99 -999 -999 -999 -99.9 -99.9 -999.9 -9.9 -9.999 -99.9 -99.99 -9.99
2019/11/22 09:42 EST    0.34 -99.99 -999 -999 -999 -99.9 -99.9 -999.9 -9.9 -9.999 -99.9 -99.99 -9.99
2019/11/22 09:48 EST    0.28 -99.99 -999 -999 -999 -99.9 -99.9 -999.9 -9.9 -9.999 -99.9 -99.99 -9.99
2019/11/22 09:54 EST    0.23 -99.99 -999 -999 -999 -99.9 -99.9 -999.9 -9.9 -9.999 -99.9 -99.99 -9.99
2019/11/22 10:00 EST    0.18 -99.99 -999 -999 -999 -99.9 -99.9 -999.9 -9.9 -9.999 -99.9 -99.99 -9.99
2019/11/22 10:06 EST    0.14 -99.99 -999 -999 -999 -99.9 -99.9 -999.9 -9.9 -9.999 -99.9 -99.99 -9.99
2019/11/22 10:12 EST    0.11 -99.99 -999 -999 -999 -99.9 -99.9 -999.9 -9.9 -9.999 -99.9 -99.99 -9.99
2019/11/22 10:18 EST    0.08 -99.99 -999 -999 -999 -99.9 -99.9 -999.9 -9.9 -9.999 -99.9 -99.99 -9.99
2019/11/22 10:24 EST    0.06 -99.99 -999 -999 -999 -99.9 -99.9 -999.9 -9.9 -9.999 -99.9 -99.99 -9.99
2019/11/22 10:30 EST    0.06 -99.99 -999 -999 -999 -99.9 -99.9 -999.9 -9.9 -9.999 -99.9 -99.99 -9.99
2019/11/22 10:36 EST    0.06 -99.99 -999 -999 -999 -99.9 -99.9 -999.9 -9.9 -9.999 -99.9 -99.99 -9.99
2019/11/22 10:42 EST    0.07 -99.99 -999 -999 -999 -99.9 -99.9 -999.9 -9.9 -9.999 -99.9 -99.99 -9.99
2019/11/22 10:48 EST    0.09 -99.99 -999 -999 -999 -99.9 -99.9 -999.9 -9.9 -9.999 -99.9 -99.99 -9.99
2019/11/22 10:54 EST    0.12 -99.99 -999 -999 -999 -99.9 -99.9 -999.9 -9.9 -9.999 -99.9 -99.99 -9.99
2019/11/22 11:00 EST    0.16 -99.99 -999 -999 -999 -99.9 -99.9 -999.9 -9.9 -9.999 -99.9 -99.99 -9.99
2019/11/22 11:06 EST    0.21 -99.99 -999 -999 -999 -99.9 -99.9 -999.9 -9.9 -9.999 -99.9 -99.99 -9.99
2019/11/22 11:12 EST    0.27 -99.99 -999 -999 -999 -99.9 -99.9 -999.9 -9.9 -9.999 -99.9 -99.99 -9.99
2019/11/22 11:18 EST    0.34 -99.99 -999 -999 -999 -99.9 -99.9 -999.9 -9.9 -9.999 -99.9 -99.99 -9.99
2019/11/22 11:24 EST    0.41 -99.99 -999 -999 -999 -99.9 -99.9 -999.9 -9.9 -9.999 -99.9 -99.99 -9.99
2019/11/22 11:30 EST    0.50 -99.99 -999 -999 -999 -99.9 -99.9 -999.9 -9.9 -9.999 -99.9 -99.99 -9.99
2019/11/22 11:36 EST    0.59 -99.99 -999 -999 -999 -99.9 -99.9 -999.9 -9.9 -9.999 -99.9 -99.99 -9.99
2019/11/22 11:42 EST    0.69 -99.99 -999 -999 -999 -99.9 -99.9 -999.9 -9.9 -9.999 -99.9 -99.99 -9.99
2019/11/22 11:48 EST    0.80 -99.99 -999 -999 -999 -99.9 -99.9 -999.9 -9.9 -9.999 -99.9 -99.99 -9.99
2019/11/22 11:54 EST    0.91 -99.99 -999 -999 -999 -99.9 -99.9 -999.9 -9.9 -9.999 -99.9 -99.99 -9.99
2019/11/22 12:00 EST    1.03 -99.99 -999 -999 -999 -99.9 -99.9 -999.9 -9.9 -9.999 -99.9 -99.99 -9.99
2019/11/22 12:06 EST    1.16 -99.99 -999 -999 -999 -99.9 -99.9 -999.9 -9.9 -9.999 -99.9 -99.99 -9.99
2019/11/22 12:12 EST    1.29 -99.99 -999 -999 -999 -99.9 -99.9 -999.9 -9.9 -9.999 -99.9 -99.99 -9.99
2019/11/22 12:18 EST    1.42 -99.99 -999 -999 -999 -99.9 -99.9 -999.9 -9.9 -9.999 -99.9 -99.99 -9.99
2019/11/22 12:24 EST    1.55 -99.99 -999 -999 -999 -99.9 -99.9 -999.9 -9.9 -9.999 -99.9 -99.99 -9.99
2019/11/22 12:30 EST    1.68 -99.99 -999 -999 -999 -99.9 -99.9 -999.9 -9.9 -9.999 -99.9 -99.99 -9.99
2019/11/22 12:36 EST    1.82 -99.99 -999 -999 -999 -99.9 -99.9 -999.9 -9.9 -9.999 -99.9 -99.99 -9.99
2019/11/22 12:42 EST    1.96 -99.99 -999 -999 -999 -99.9 -99.9 -999.9 -9.9 -9.999 -99.9 -99.99 -9.99
2019/11/22 12:48 EST    2.09 -99.99 -999 -999 -999 -99.9 -99.9 -999.9 -9.9 -9.999 -99.9 -99.99 -9.99
2019/11/22 12:54 EST    2.23 -99.99 -999 -999 -999 -99.9 -99.9 -999.9 -9.9 -9.999 -99.9 -99.99 -9.99
2019/11/22 13:00 EST    2.36 -99.99 -999 -999 -999 -99.9 -99.9 -999.9 -9.9 -9.999 -99.9 -99.99 -9.99
2019/11/22 13:06 EST    2.50 -99.99 -999 -999 -999 -99.9 -99.9 -999.9 -9.9 -9.999 -99.9 -99.99 -9.99
2019/11/22 13:12 EST    2.63 -99.99 -999 -999 -999 -99.9 -99.9 -999.9 -9.9 -9.999 -99.9 -99.99 -9.99
2019/11/22 13:18 EST    2.76 -99.99 -999 -999 -999 -99.9 -99.9 -999.9 -9.9 -9.999 -99.9 -99.99 -9.99
2019/11/22 13:24 EST    2.88 -99.99 -999 -999 -999 -99.9 -99.9 -999.9 -9.9 -9.999 -99.9 -99.99 -9.99
2019/11/22 13:30 EST    3.01 -99.99 -999 -999 -999 -99.9 -99.9 -999.9 -9.9 -9.999 -99.9 -99.99 -9.99
2019/11/22 13:36 EST    3.12 -99.99 -999 -999 -999 -99.9 -99.9 -999.9 -9.9 -9.999 -99.9 -99.99 -9.99
2019/11/22 13:42 EST    3.24 -99.99 -999 -999 -999 -99.9 -99.9 -999.9 -9.9 -9.999 -99.9 -99.99 -9.99
2019/11/22 13:48 EST    3.35 -99.99 -999 -999 -999 -99.9 -99.9 -999.9 -9.9 -9.999 -99.9 -99.99 -9.99